Time;durP1;ratioP1;P1;durP2;ratioP2;P2;SDS_P1;SDS_P2;PMS_P1;PMS_P2;Temp;Humidity;BMP_temperature;BMP_pressure;BME280_temperature;BME280_humidity;BME280_pressure;Samples;Min_cycle;Max_cycle;Signal;HPM_P1;HPM_P2
2021/07/16 15:58:17;;;;;;;23.97;10.67;;;19.80;99.90;;;;;;8463467;27;20577;-83
2021/07/16 16:02:18;;;;;;;18.43;9.97;;;23.30;99.40;;;;;;8440844;28;20410;-83
2021/07/16 16:06:19;;;;;;;20.90;10.13;;;23.40;99.30;;;;;;8433353;28;20205;-78
2021/07/16 16:10:20;;;;;;;17.07;9.17;;;23.50;98.30;;;;;;8436246;28;20182;-81
2021/07/16 16:14:20;;;;;;;22.40;8.90;;;23.50;98.30;;;;;;8457833;28;20197;-81
2021/07/16 16:18:21;;;;;;;23.30;10.23;;;23.40;98.50;;;;;;8436740;28;20423;-81
2021/07/16 16:22:22;;;;;;;15.20;8.70;;;23.30;98.50;;;;;;8442462;28;20201;-82
2021/07/16 16:26:23;;;;;;;15.70;9.40;;;23.10;98.80;;;;;;8437925;28;20840;-81
2021/07/16 16:30:24;;;;;;;27.17;10.20;;;22.80;99.40;;;;;;8434862;28;21002;-82
2021/07/16 16:34:25;;;;;;;35.90;10.70;;;22.70;99.50;;;;;;8438799;28;20216;-79
2021/07/16 16:38:26;;;;;;;27.10;12.13;;;22.60;99.80;;;;;;8451555;28;20422;-79
2021/07/16 16:42:26;;;;;;;26.67;13.03;;;22.60;99.90;;;;;;8439442;28;20178;-79
2021/07/16 16:46:27;;;;;;;16.33;10.93;;;22.50;99.70;;;;;;8439729;28;20745;-78
2021/07/16 16:50:28;;;;;;;16.17;9.70;;;22.40;99.80;;;;;;8424187;28;20192;-78
2021/07/16 16:54:28;;;;;;;23.43;9.60;;;22.40;99.90;;;;;;8425283;28;20280;-78
2021/07/16 16:58:29;;;;;;;22.17;9.80;;;22.20;99.80;;;;;;8409827;28;20301;-78
2021/07/16 17:02:30;;;;;;;24.53;9.37;;;22.10;99.90;;;;;;8407188;28;20189;-78
2021/07/16 17:06:30;;;;;;;28.73;12.23;;;22.00;99.90;;;;;;8412518;28;20617;-78
2021/07/16 17:10:31;;;;;;;22.83;11.97;;;21.90;99.90;;;;;;8427806;28;20182;-78
2021/07/16 17:14:32;;;;;;;20.07;11.40;;;21.90;99.90;;;;;;8396412;28;20182;-78
2021/07/16 17:18:33;;;;;;;23.43;11.43;;;21.80;99.90;;;;;;8417883;28;20196;-77
2021/07/16 17:22:34;;;;;;;19.77;11.03;;;21.80;99.90;;;;;;8402413;28;20194;-77
2021/07/16 17:26:35;;;;;;;16.60;10.13;;;21.70;99.90;;;;;;8419092;28;20213;-77
2021/07/16 17:30:36;;;;;;;18.47;12.00;;;21.70;99.90;;;;;;8428423;28;20448;-77
2021/07/16 17:34:36;;;;;;;25.67;11.00;;;21.70;99.90;;;;;;8408653;28;20202;-78
2021/07/16 17:38:37;;;;;;;24.03;12.07;;;21.60;99.90;;;;;;8402200;28;20439;-77
2021/07/16 17:42:39;;;;;;;18.23;11.60;;;21.50;99.90;;;;;;8412451;28;20189;-77
2021/07/16 17:46:39;;;;;;;21.13;11.10;;;21.50;99.90;;;;;;8383927;28;20759;-77
2021/07/16 17:50:40;;;;;;;20.00;11.20;;;21.40;99.90;;;;;;8400949;28;20964;-77
2021/07/16 17:54:40;;;;;;;26.47;14.27;;;21.30;99.90;;;;;;8410925;28;20316;-75
2021/07/16 17:58:41;;;;;;;22.73;11.70;;;21.30;99.90;;;;;;8411710;28;20211;-74
2021/07/16 18:02:42;;;;;;;23.03;11.57;;;21.20;99.90;;;;;;8404662;28;20230;-75
2021/07/16 18:06:43;;;;;;;23.87;12.77;;;21.20;99.90;;;;;;8407594;28;20229;-75
2021/07/16 18:10:44;;;;;;;19.43;11.53;;;21.20;99.90;;;;;;8386234;28;20178;-75
2021/07/16 18:14:44;;;;;;;18.27;11.80;;;21.10;99.90;;;;;;8411866;28;20447;-74
2021/07/16 18:18:45;;;;;;;20.97;12.50;;;21.10;99.90;;;;;;8407427;28;20219;-74
2021/07/16 18:22:46;;;;;;;26.17;12.83;;;21.10;99.90;;;;;;8391535;28;20182;-73
2021/07/16 18:26:46;;;;;;;21.83;10.90;;;21.20;99.90;;;;;;8414053;28;21185;-74
2021/07/16 18:30:48;;;;;;;28.00;12.50;;;21.20;99.90;;;;;;8406158;28;21174;-73
2021/07/16 18:34:49;;;;;;;30.67;11.77;;;21.10;99.90;;;;;;8414069;28;20174;-75
2021/07/16 18:38:50;;;;;;;31.27;12.80;;;21.10;99.90;;;;;;8409469;28;20444;-75
2021/07/16 18:42:51;;;;;;;29.37;13.27;;;21.00;99.90;;;;;;8386405;28;20657;-74
2021/07/16 18:46:51;;;;;;;21.60;13.13;;;21.00;99.90;;;;;;8411953;28;20459;-74
2021/07/16 18:50:52;;;;;;;22.43;13.50;;;20.90;99.90;;;;;;8409316;28;20438;-74
2021/07/16 18:54:53;;;;;;;16.17;11.70;;;20.90;99.90;;;;;;8406884;28;20214;-75
2021/07/16 18:58:54;;;;;;;23.10;12.00;;;20.80;99.90;;;;;;8389682;28;20187;-76
2021/07/16 19:02:54;;;;;;;22.70;11.80;;;20.80;99.90;;;;;;8394734;28;20571;-77
2021/07/16 19:06:55;;;;;;;17.37;13.67;;;20.80;99.90;;;;;;8396718;28;20468;-75
2021/07/16 19:10:56;;;;;;;26.43;13.00;;;20.80;99.90;;;;;;8381484;28;20197;-74
2021/07/16 19:14:57;;;;;;;33.93;13.00;;;20.80;99.90;;;;;;8383658;28;20600;-76
2021/07/16 19:18:58;;;;;;;28.80;11.80;;;20.70;99.90;;;;;;8393281;28;20234;-76
2021/07/16 19:22:58;;;;;;;23.03;12.70;;;20.70;99.90;;;;;;8391572;28;20270;-76
2021/07/16 19:26:59;;;;;;;17.40;12.60;;;20.60;99.90;;;;;;8402962;28;20534;-76
2021/07/16 19:31:00;;;;;;;27.90;13.47;;;20.60;99.90;;;;;;8405822;28;20832;-77
2021/07/16 19:35:00;;;;;;;22.83;11.87;;;20.60;99.90;;;;;;8405873;28;20269;-76
2021/07/16 19:39:01;;;;;;;16.70;10.97;;;20.50;99.90;;;;;;8398663;28;20202;-76
2021/07/16 19:43:02;;;;;;;27.10;12.60;;;20.50;99.90;;;;;;8398043;28;20920;-75
2021/07/16 19:47:03;;;;;;;22.43;12.40;;;20.40;99.90;;;;;;8397136;28;20202;-75
2021/07/16 19:51:04;;;;;;;17.13;10.90;;;20.40;99.90;;;;;;8404369;28;20486;-75
2021/07/16 19:55:07;;;;;;;23.73;10.30;;;20.40;99.90;;;;;;8401907;28;20719;-76
2021/07/16 19:59:07;;;;;;;18.57;11.20;;;20.30;99.90;;;;;;8391876;28;20440;-76
2021/07/16 20:03:08;;;;;;;19.30;12.70;;;20.30;99.90;;;;;;8387675;28;20535;-76
2021/07/16 20:07:09;;;;;;;18.77;11.30;;;20.30;99.90;;;;;;8407066;28;20213;-76
2021/07/16 20:11:10;;;;;;;23.73;11.70;;;20.30;99.90;;;;;;8406386;28;20680;-76
2021/07/16 20:15:11;;;;;;;15.53;11.10;;;20.30;99.90;;;;;;8405867;28;20658;-76
2021/07/16 20:19:12;;;;;;;22.87;11.37;;;20.30;99.90;;;;;;8407827;28;20741;-75
2021/07/16 20:23:13;;;;;;;13.40;10.03;;;20.30;99.90;;;;;;8404623;28;20932;-75
2021/07/16 20:27:15;;;;;;;20.27;11.90;;;20.20;99.90;;;;;;8383903;28;20982;-74
2021/07/16 20:31:16;;;;;;;18.73;11.47;;;20.20;99.90;;;;;;8403706;28;20448;-75
2021/07/16 20:35:17;;;;;;;15.60;11.30;;;20.20;99.90;;;;;;8390775;28;20454;-75
2021/07/16 20:39:18;;;;;;;13.23;9.77;;;20.20;99.90;;;;;;8409295;28;20186;-76
2021/07/16 20:43:20;;;;;;;22.63;11.83;;;20.10;99.90;;;;;;8396420;28;20439;-75
2021/07/16 20:47:20;;;;;;;16.17;11.30;;;20.10;99.90;;;;;;8413291;28;20215;-76
2021/07/16 20:51:21;;;;;;;21.07;11.70;;;20.10;99.90;;;;;;8409744;28;20454;-75
2021/07/16 20:55:23;;;;;;;15.30;10.80;;;20.10;99.90;;;;;;8411955;28;20724;-74
2021/07/16 20:59:24;;;;;;;23.93;10.60;;;20.10;99.90;;;;;;8411639;28;20289;-75
2021/07/16 21:03:25;;;;;;;18.00;11.17;;;20.10;99.90;;;;;;8411823;28;20444;-74
2021/07/16 21:07:26;;;;;;;15.47;10.63;;;20.10;99.90;;;;;;8391373;28;20203;-75
2021/07/16 21:11:27;;;;;;;17.77;9.60;;;20.10;99.90;;;;;;8409491;28;20446;-75
2021/07/16 21:15:30;;;;;;;16.90;10.53;;;20.10;99.90;;;;;;8398266;28;20235;-75
2021/07/16 21:19:31;;;;;;;26.20;10.63;;;20.10;99.90;;;;;;8401569;28;21262;-75
2021/07/16 21:23:32;;;;;;;18.23;10.43;;;20.00;99.90;;;;;;8394340;28;21620;-74
2021/07/16 21:27:33;;;;;;;25.03;11.53;;;20.10;99.90;;;;;;8404077;28;22588;-74
2021/07/16 21:31:33;;;;;;;14.87;10.00;;;20.00;99.90;;;;;;8418436;28;20214;-74
2021/07/16 21:35:34;;;;;;;20.90;11.30;;;20.10;99.90;;;;;;8412216;28;20189;-74
2021/07/16 21:39:35;;;;;;;18.70;10.77;;;20.10;99.90;;;;;;8399970;28;20197;-75
2021/07/16 21:43:36;;;;;;;14.90;9.97;;;20.10;99.90;;;;;;8422789;28;20186;-75
2021/07/16 21:47:37;;;;;;;10.50;9.37;;;20.10;99.90;;;;;;8418306;28;20208;-75
2021/07/16 21:51:38;;;;;;;19.23;9.70;;;20.10;99.90;;;;;;8417085;28;20900;-76
